Aviation Digital Data Service (ADDS)

Output produced by METARs form (0639 UTC 27 March 2017)
found at http://www.aviationweather.gov/adds/metars/
 
TAF SABE 270500Z 2706/2806 07010KT 9999 SCT015 TX27/2718Z TN21/2709Z 
     PROB40 
     TEMPO 2609/2611 7000 BKN008 
     BECMG 2712/2713 09005KT 9999 SCT020 SCT035 
     BECMG 2616/2618 SCT040TCU 
     BECMG 2621/2623 09015KT 9999 SCT020 
       
TAF SACO 270500Z 2706/2806 05005KT 9999 BKN020 TX31/2718Z TN16/2710Z 
     PROB40 
     TEMPO 2707/2710 05003KT 5000 BR BKN015 FEW040CB 
     BECMG 2712/2714 02005KT 7000 BR/DZ BKN020 BKN030
       
TAF SAAR 270500Z 2706/2806 07005KT CAVOK TX28/2718Z TN18/2709Z 
     TEMPO 2709/2712 3000 BR SCT015 SCT020 
     BECMG 2713/2714 09005KT 9999 SCT020 SCT030 FEW035TCU 
     BECMG 2722/2723 CAVOK 
       
TAF SABE 270500Z 2706/2806 07010KT 9999 SCT015 TX27/2718Z TN21/2709Z 
     PROB40 
     TEMPO 2609/2611 7000 BKN008 
     BECMG 2712/2713 09005KT 9999 SCT020 SCT035 
     BECMG 2616/2618 SCT040TCU 
     BECMG 2621/2623 09015KT 9999 SCT020 
       
TAF SACO 270500Z 2706/2806 05005KT 9999 BKN020 TX31/2718Z TN16/2710Z 
     PROB40 
     TEMPO 2707/2710 05003KT 5000 BR BKN015 FEW040CB 
     BECMG 2712/2714 02005KT 7000 BR/DZ BKN020 BKN030
       
TAF SADF 270500Z 2706/2806 05005KT 9999 SCT020 TX27/2718Z TN20/2709Z 
     PROB40 
     TEMPO 2609/2611 5000 BR BKN008 
     BECMG 2712/2713 07005KT 9999 SCT020 SCT035 
     BECMG 2616/2618 SCT040TCU 
     BECMG 2621/2623 09015KT 9999 SCT020 
       
TAF SAEZ 270500Z 2706/2806 07010KT CAVOK TX28/2719Z TN20/2710Z 
     PROB30 
     TEMPO 2708/2712 VRB03KT 1500 MIFGBR NSC
       
TAF SAME 270500Z 2706/2806 16005KT 7000 TS/RASH BKN025 FEW040CB TN18/2710Z TX31/2720Z 
     BECMG 2707/2710 18005KT 6000 DZ BKN030 
       
TAF SANT 270500Z 2706/2806 05005KT 6000 TS/RASH BKN020 BKN030 FEW040CB TX30/2719Z TN18/2710Z 
     PROB40 
     TEMPO 2709/2712 VRB03KT 0500 BCFG BKN005 
     BECMG 2713/2716 09010KT 9999 BKN035
       
TAF SARE 270500Z 2706/2806 11005KT CAVOK TX28/2718Z TN20/2710Z 
     PROB30 2707/2710 00000KT 3000 BR NSC 
     BECMG 2712/2715 BKN030 FEW040TCU 
     PROB30 
     TEMPO 2716/2722 16010KT 7000 SHRA BKN030 FEW045TCU SCT050 
     BECMG 2801/2803 CAVOK
       
TAF SARF 270500Z 2706/2806 07005KT CAVOK TX30/2718Z TN21/2710Z 
     BECMG 2712/2715 9999 BKN030 FEW040TCU 
     BECMG 2712/2715 BKN030 FEW040TCU 
     PROB30 
     TEMPO 2716/2722 16010KT 7000 SHRA BKN030 FEW045TCU SCT050 
     BECMG 2801/2803 CAVOK
       
TAF SARI 270500Z 2706/2806 VRB03KT CAVOK TX28/2718Z TN20/2710Z 
     PROB40 2707/2711 00000KT 2000 BR NSC 
     BECMG 2712/2714 9999 BKN030 FEW040TCU 
     BECMG 2721/2723 CAVOK
       
TAF SARP 270500Z 2706/2806 07005KT CAVOK TX28/2718Z TN21/2710Z 
     BECMG 2712/2715 9999 BKN030 FEW040TCU 
     TEMPO 2716/2722 16010KT 7000 SHRA BKN030 FEW045TCU SCT050 
     BECMG 2801/2803 CAVOK
       
TAF SASA 270500Z 2706/2806 05005KT 6000 RA/DZ BKN015 BKN030 FEW040CB TX30/2719Z TN18/2710Z 
     PROB40 
     TEMPO 2709/2712 VRB03KT 1000 FG BKN008 
     BECMG 2713/2716 09010KT 9999 BKN025
       
TAF SASJ 270500Z 2706/2806 05005KT 6000 TS/RASH BKN020 BKN030 FEW040CB TX30/2719Z TN18/2710Z 
     PROB40 
     TEMPO 2709/2712 VRB03KT 3000 BR BKN008 
     BECMG 2713/2716 09010KT 9999 BKN035
       
TAF SAVC 270500Z 2706/2806 VRB05KT 9999 -RA FEW015 BKN060 TX18/2719Z TN12/2710Z 
     BECMG 2710/2712 11008KT 9999 NSW SCT030 SCT100 
     BECMG 2802/2804 -RA SCT020 BKN050
       
TAF SAWE 270500Z 2706/2806 VRB03KT 9999 -DZ SCT009 BKN040 TX14/2719Z TN05/2710Z 
     PROB30 
     TEMPO 2706/2710 3000 +DZ BR 
     BECMG 2714/2716 VRB03KT 9999 NSW SCT030 SCT040
       
TAF SAWG 270500Z 2706/2806 11008KT 9999 -DZ SCT009 BKN015 TX16/2719Z TN09/2710Z 
     PROB30 
     TEMPO 2706/2710 3000 +DZ BR 
     BECMG 2714/2716 VRB03KT 9999 NSW SCT030 SCT040
       
TAF SAWH 270500Z 2706/2806 VRB03KT 9999 SCT030 SCT080 TX16/2719Z TN04/2710Z
       
TAF SAZM 270500Z 2706/2806 05010KT 5000 BR BKN008 FEW040CB BKN100 TX25/2718Z TN18/2709Z 
     PROB40 2707/2709 5000 TSRA FEW040CB 
     TEMPO 2712/2715 9999 BKN020 BKN040 
     BECMG 2716/2718 05010G25KT 7000 SHRA OVC015 
       
TAF SAZN 270500Z 2706/2806 VRB03KT 9999 SCT040 SCT100 TX27/2719Z TN14/2710Z 
     BECMG 2712/2714 11010KT 9999 BKN030 BKN060 
     PROB30 
     TEMPO 1716/2720 8000 SHRA OVC030 FEW040CB 
     BECMG 2800/2802 4000 TSRA FEW040CB OVC045 
       
TAF SAZS 270500Z 2706/2806 29005KT 9999 BKN020 BKN100 TX20/2718Z TN05/2709Z 
     TEMPO 2710/2713 VRB03KT 7000 SCT015 BKN060 
     BECMG 2714/2715 05010KT 9999 SCT020 
     BECMG 2722/2800 20005KT 7000 RA BKN020 BKN050 
       
TAF SARI 270500Z 2706/2806 VRB03KT CAVOK TX28/2718Z TN20/2710Z 
     PROB40 2707/2711 00000KT 2000 BR NSC 
     BECMG 2712/2714 9999 BKN030 FEW040TCU 
     BECMG 2721/2723 CAVOK
       
TAF SAVC 270500Z 2706/2806 VRB05KT 9999 -RA FEW015 BKN060 TX18/2719Z TN12/2710Z 
     BECMG 2710/2712 11008KT 9999 NSW SCT030 SCT100 
     BECMG 2802/2804 -RA SCT020 BKN050
       
TAF SAME 270500Z 2706/2806 16005KT 7000 TS/RASH BKN025 FEW040CB TN18/2710Z TX31/2720Z 
     BECMG 2707/2710 18005KT 6000 DZ BKN030 
       
TAF SARF 270500Z 2706/2806 07005KT CAVOK TX30/2718Z TN21/2710Z 
     BECMG 2712/2715 9999 BKN030 FEW040TCU 
     BECMG 2712/2715 BKN030 FEW040TCU 
     PROB30 
     TEMPO 2716/2722 16010KT 7000 SHRA BKN030 FEW045TCU SCT050 
     BECMG 2801/2803 CAVOK
       
TAF SASJ 270500Z 2706/2806 05005KT 6000 TS/RASH BKN020 BKN030 FEW040CB TX30/2719Z TN18/2710Z 
     PROB40 
     TEMPO 2709/2712 VRB03KT 3000 BR BKN008 
     BECMG 2713/2716 09010KT 9999 BKN035
       
TAF SASA 270500Z 2706/2806 05005KT 6000 RA/DZ BKN015 BKN030 FEW040CB TX30/2719Z TN18/2710Z 
     PROB40 
     TEMPO 2709/2712 VRB03KT 1000 FG BKN008 
     BECMG 2713/2716 09010KT 9999 BKN025
       
TAF SAZM 270500Z 2706/2806 05010KT 5000 BR BKN008 FEW040CB BKN100 TX25/2718Z TN18/2709Z 
     PROB40 2707/2709 5000 TSRA FEW040CB 
     TEMPO 2712/2715 9999 BKN020 BKN040 
     BECMG 2716/2718 05010G25KT 7000 SHRA OVC015 
       
TAF SAEZ 270500Z 2706/2806 07010KT CAVOK TX28/2719Z TN20/2710Z 
     PROB30 
     TEMPO 2708/2712 VRB03KT 1500 MIFGBR NSC
       
TAF SARP 270500Z 2706/2806 07005KT CAVOK TX28/2718Z TN21/2710Z 
     BECMG 2712/2715 9999 BKN030 FEW040TCU 
     TEMPO 2716/2722 16010KT 7000 SHRA BKN030 FEW045TCU SCT050 
     BECMG 2801/2803 CAVOK
       
TAF SAZN 270500Z 2706/2806 VRB03KT 9999 SCT040 SCT100 TX27/2719Z TN14/2710Z 
     BECMG 2712/2714 11010KT 9999 BKN030 BKN060 
     PROB30 
     TEMPO 1716/2720 8000 SHRA OVC030 FEW040CB 
     BECMG 2800/2802 4000 TSRA FEW040CB OVC045 
       
TAF SARE 270500Z 2706/2806 11005KT CAVOK TX28/2718Z TN20/2710Z 
     PROB30 2707/2710 00000KT 3000 BR NSC 
     BECMG 2712/2715 BKN030 FEW040TCU 
     PROB30 
     TEMPO 2716/2722 16010KT 7000 SHRA BKN030 FEW045TCU SCT050 
     BECMG 2801/2803 CAVOK
       
TAF SAWG 270500Z 2706/2806 11008KT 9999 -DZ SCT009 BKN015 TX16/2719Z TN09/2710Z 
     PROB30 
     TEMPO 2706/2710 3000 +DZ BR 
     BECMG 2714/2716 VRB03KT 9999 NSW SCT030 SCT040
       
TAF SAWE 270500Z 2706/2806 VRB03KT 9999 -DZ SCT009 BKN040 TX14/2719Z TN05/2710Z 
     PROB30 
     TEMPO 2706/2710 3000 +DZ BR 
     BECMG 2714/2716 VRB03KT 9999 NSW SCT030 SCT040
       
TAF SAAR 270500Z 2706/2806 07005KT CAVOK TX28/2718Z TN18/2709Z 
     TEMPO 2709/2712 3000 BR SCT015 SCT020 
     BECMG 2713/2714 09005KT 9999 SCT020 SCT030 FEW035TCU 
     BECMG 2722/2723 CAVOK 
       
TAF SAAR 270500Z 2706/2806 07005KT CAVOK TX28/2718Z TN18/2709Z 
     TEMPO 2709/2712 3000 BR SCT015 SCT020 
     BECMG 2713/2714 09005KT 9999 SCT020 SCT030 FEW035TCU 
     BECMG 2722/2723 CAVOK 
       
TAF SABE 270500Z 2706/2806 07010KT 9999 SCT015 TX27/2718Z TN21/2709Z 
     PROB40 
     TEMPO 2609/2611 7000 BKN008 
     BECMG 2712/2713 09005KT 9999 SCT020 SCT035 
     BECMG 2616/2618 SCT040TCU 
     BECMG 2621/2623 09015KT 9999 SCT020 
       
TAF SACO 270500Z 2706/2806 05005KT 9999 BKN020 TX31/2718Z TN16/2710Z 
     PROB40 
     TEMPO 2707/2710 05003KT 5000 BR BKN015 FEW040CB 
     BECMG 2712/2714 02005KT 7000 BR/DZ BKN020 BKN030
       
TAF SADF 270500Z 2706/2806 05005KT 9999 SCT020 TX27/2718Z TN20/2709Z 
     PROB40 
     TEMPO 2609/2611 5000 BR BKN008 
     BECMG 2712/2713 07005KT 9999 SCT020 SCT035 
     BECMG 2616/2618 SCT040TCU 
     BECMG 2621/2623 09015KT 9999 SCT020 
       
TAF SAEZ 270500Z 2706/2806 07010KT CAVOK TX28/2719Z TN20/2710Z 
     PROB30 
     TEMPO 2708/2712 VRB03KT 1500 MIFGBR NSC
       
TAF SAME 270500Z 2706/2806 16005KT 7000 TS/RASH BKN025 FEW040CB TN18/2710Z TX31/2720Z 
     BECMG 2707/2710 18005KT 6000 DZ BKN030 
       
TAF SANT 270500Z 2706/2806 05005KT 6000 TS/RASH BKN020 BKN030 FEW040CB TX30/2719Z TN18/2710Z 
     PROB40 
     TEMPO 2709/2712 VRB03KT 0500 BCFG BKN005 
     BECMG 2713/2716 09010KT 9999 BKN035
       
TAF SARE 270500Z 2706/2806 11005KT CAVOK TX28/2718Z TN20/2710Z 
     PROB30 2707/2710 00000KT 3000 BR NSC 
     BECMG 2712/2715 BKN030 FEW040TCU 
     PROB30 
     TEMPO 2716/2722 16010KT 7000 SHRA BKN030 FEW045TCU SCT050 
     BECMG 2801/2803 CAVOK
       
TAF SARF 270500Z 2706/2806 07005KT CAVOK TX30/2718Z TN21/2710Z 
     BECMG 2712/2715 9999 BKN030 FEW040TCU 
     BECMG 2712/2715 BKN030 FEW040TCU 
     PROB30 
     TEMPO 2716/2722 16010KT 7000 SHRA BKN030 FEW045TCU SCT050 
     BECMG 2801/2803 CAVOK
       
TAF SARI 270500Z 2706/2806 VRB03KT CAVOK TX28/2718Z TN20/2710Z 
     PROB40 2707/2711 00000KT 2000 BR NSC 
     BECMG 2712/2714 9999 BKN030 FEW040TCU 
     BECMG 2721/2723 CAVOK
       
TAF SARP 270500Z 2706/2806 07005KT CAVOK TX28/2718Z TN21/2710Z 
     BECMG 2712/2715 9999 BKN030 FEW040TCU 
     TEMPO 2716/2722 16010KT 7000 SHRA BKN030 FEW045TCU SCT050 
     BECMG 2801/2803 CAVOK
       
TAF SASA 270500Z 2706/2806 05005KT 6000 RA/DZ BKN015 BKN030 FEW040CB TX30/2719Z TN18/2710Z 
     PROB40 
     TEMPO 2709/2712 VRB03KT 1000 FG BKN008 
     BECMG 2713/2716 09010KT 9999 BKN025
       
TAF SASJ 270500Z 2706/2806 05005KT 6000 TS/RASH BKN020 BKN030 FEW040CB TX30/2719Z TN18/2710Z 
     PROB40 
     TEMPO 2709/2712 VRB03KT 3000 BR BKN008 
     BECMG 2713/2716 09010KT 9999 BKN035
       
TAF SAVC 270500Z 2706/2806 VRB05KT 9999 -RA FEW015 BKN060 TX18/2719Z TN12/2710Z 
     BECMG 2710/2712 11008KT 9999 NSW SCT030 SCT100 
     BECMG 2802/2804 -RA SCT020 BKN050
       
TAF SAWE 270500Z 2706/2806 VRB03KT 9999 -DZ SCT009 BKN040 TX14/2719Z TN05/2710Z 
     PROB30 
     TEMPO 2706/2710 3000 +DZ BR 
     BECMG 2714/2716 VRB03KT 9999 NSW SCT030 SCT040
       
TAF SAWG 270500Z 2706/2806 11008KT 9999 -DZ SCT009 BKN015 TX16/2719Z TN09/2710Z 
     PROB30 
     TEMPO 2706/2710 3000 +DZ BR 
     BECMG 2714/2716 VRB03KT 9999 NSW SCT030 SCT040
       
TAF SAWH 270500Z 2706/2806 VRB03KT 9999 SCT030 SCT080 TX16/2719Z TN04/2710Z
       
TAF SAZM 270500Z 2706/2806 05010KT 5000 BR BKN008 FEW040CB BKN100 TX25/2718Z TN18/2709Z 
     PROB40 2707/2709 5000 TSRA FEW040CB 
     TEMPO 2712/2715 9999 BKN020 BKN040 
     BECMG 2716/2718 05010G25KT 7000 SHRA OVC015 
       
TAF SAZN 270500Z 2706/2806 VRB03KT 9999 SCT040 SCT100 TX27/2719Z TN14/2710Z 
     BECMG 2712/2714 11010KT 9999 BKN030 BKN060 
     PROB30 
     TEMPO 1716/2720 8000 SHRA OVC030 FEW040CB 
     BECMG 2800/2802 4000 TSRA FEW040CB OVC045 
       
TAF SAZS 270500Z 2706/2806 29005KT 9999 BKN020 BKN100 TX20/2718Z TN05/2709Z 
     TEMPO 2710/2713 VRB03KT 7000 SCT015 BKN060 
     BECMG 2714/2715 05010KT 9999 SCT020 
     BECMG 2722/2800 20005KT 7000 RA BKN020 BKN050 
       
TAF SASA 270500Z 2706/2806 05005KT 6000 RA/DZ BKN015 BKN030 FEW040CB TX30/2719Z TN18/2710Z 
     PROB40 
     TEMPO 2709/2712 VRB03KT 1000 FG BKN008 
     BECMG 2713/2716 09010KT 9999 BKN025
       
TAF SAZS 270500Z 2706/2806 29005KT 9999 BKN020 BKN100 TX20/2718Z TN05/2709Z 
     TEMPO 2710/2713 VRB03KT 7000 SCT015 BKN060 
     BECMG 2714/2715 05010KT 9999 SCT020 
     BECMG 2722/2800 20005KT 7000 RA BKN020 BKN050 
       
TAF SADF 270500Z 2706/2806 05005KT 9999 SCT020 TX27/2718Z TN20/2709Z 
     PROB40 
     TEMPO 2609/2611 5000 BR BKN008 
     BECMG 2712/2713 07005KT 9999 SCT020 SCT035 
     BECMG 2616/2618 SCT040TCU 
     BECMG 2621/2623 09015KT 9999 SCT020 
       
TAF SAAR 270500Z 2706/2806 07005KT CAVOK TX28/2718Z TN18/2709Z 
     TEMPO 2709/2712 3000 BR SCT015 SCT020 
     BECMG 2713/2714 09005KT 9999 SCT020 SCT030 FEW035TCU 
     BECMG 2722/2723 CAVOK 
       
TAF SABE 270500Z 2706/2806 07010KT 9999 SCT015 TX27/2718Z TN21/2709Z 
     PROB40 
     TEMPO 2609/2611 7000 BKN008 
     BECMG 2712/2713 09005KT 9999 SCT020 SCT035 
     BECMG 2616/2618 SCT040TCU 
     BECMG 2621/2623 09015KT 9999 SCT020 
       
TAF SACO 270500Z 2706/2806 05005KT 9999 BKN020 TX31/2718Z TN16/2710Z 
     PROB40 
     TEMPO 2707/2710 05003KT 5000 BR BKN015 FEW040CB 
     BECMG 2712/2714 02005KT 7000 BR/DZ BKN020 BKN030
       
TAF SADF 270500Z 2706/2806 05005KT 9999 SCT020 TX27/2718Z TN20/2709Z 
     PROB40 
     TEMPO 2609/2611 5000 BR BKN008 
     BECMG 2712/2713 07005KT 9999 SCT020 SCT035 
     BECMG 2616/2618 SCT040TCU 
     BECMG 2621/2623 09015KT 9999 SCT020 
       
TAF SAEZ 270500Z 2706/2806 07010KT CAVOK TX28/2719Z TN20/2710Z 
     PROB30 
     TEMPO 2708/2712 VRB03KT 1500 MIFGBR NSC
       
TAF SAME 270500Z 2706/2806 16005KT 7000 TS/RASH BKN025 FEW040CB TN18/2710Z TX31/2720Z 
     BECMG 2707/2710 18005KT 6000 DZ BKN030 
       
TAF SANT 270500Z 2706/2806 05005KT 6000 TS/RASH BKN020 BKN030 FEW040CB TX30/2719Z TN18/2710Z 
     PROB40 
     TEMPO 2709/2712 VRB03KT 0500 BCFG BKN005 
     BECMG 2713/2716 09010KT 9999 BKN035
       
TAF SARE 270500Z 2706/2806 11005KT CAVOK TX28/2718Z TN20/2710Z 
     PROB30 2707/2710 00000KT 3000 BR NSC 
     BECMG 2712/2715 BKN030 FEW040TCU 
     PROB30 
     TEMPO 2716/2722 16010KT 7000 SHRA BKN030 FEW045TCU SCT050 
     BECMG 2801/2803 CAVOK
       
TAF SARF 270500Z 2706/2806 07005KT CAVOK TX30/2718Z TN21/2710Z 
     BECMG 2712/2715 9999 BKN030 FEW040TCU 
     BECMG 2712/2715 BKN030 FEW040TCU 
     PROB30 
     TEMPO 2716/2722 16010KT 7000 SHRA BKN030 FEW045TCU SCT050 
     BECMG 2801/2803 CAVOK
       
TAF SARI 270500Z 2706/2806 VRB03KT CAVOK TX28/2718Z TN20/2710Z 
     PROB40 2707/2711 00000KT 2000 BR NSC 
     BECMG 2712/2714 9999 BKN030 FEW040TCU 
     BECMG 2721/2723 CAVOK
       
TAF SARP 270500Z 2706/2806 07005KT CAVOK TX28/2718Z TN21/2710Z 
     BECMG 2712/2715 9999 BKN030 FEW040TCU 
     TEMPO 2716/2722 16010KT 7000 SHRA BKN030 FEW045TCU SCT050 
     BECMG 2801/2803 CAVOK
       
TAF SASA 270500Z 2706/2806 05005KT 6000 RA/DZ BKN015 BKN030 FEW040CB TX30/2719Z TN18/2710Z 
     PROB40 
     TEMPO 2709/2712 VRB03KT 1000 FG BKN008 
     BECMG 2713/2716 09010KT 9999 BKN025
       
TAF SASJ 270500Z 2706/2806 05005KT 6000 TS/RASH BKN020 BKN030 FEW040CB TX30/2719Z TN18/2710Z 
     PROB40 
     TEMPO 2709/2712 VRB03KT 3000 BR BKN008 
     BECMG 2713/2716 09010KT 9999 BKN035
       
TAF SAVC 270500Z 2706/2806 VRB05KT 9999 -RA FEW015 BKN060 TX18/2719Z TN12/2710Z 
     BECMG 2710/2712 11008KT 9999 NSW SCT030 SCT100 
     BECMG 2802/2804 -RA SCT020 BKN050
       
TAF SAWE 270500Z 2706/2806 VRB03KT 9999 -DZ SCT009 BKN040 TX14/2719Z TN05/2710Z 
     PROB30 
     TEMPO 2706/2710 3000 +DZ BR 
     BECMG 2714/2716 VRB03KT 9999 NSW SCT030 SCT040
       
TAF SAWG 270500Z 2706/2806 11008KT 9999 -DZ SCT009 BKN015 TX16/2719Z TN09/2710Z 
     PROB30 
     TEMPO 2706/2710 3000 +DZ BR 
     BECMG 2714/2716 VRB03KT 9999 NSW SCT030 SCT040
       
TAF SAWH 270500Z 2706/2806 VRB03KT 9999 SCT030 SCT080 TX16/2719Z TN04/2710Z
       
TAF SAZM 270500Z 2706/2806 05010KT 5000 BR BKN008 FEW040CB BKN100 TX25/2718Z TN18/2709Z 
     PROB40 2707/2709 5000 TSRA FEW040CB 
     TEMPO 2712/2715 9999 BKN020 BKN040 
     BECMG 2716/2718 05010G25KT 7000 SHRA OVC015 
       
TAF SAZN 270500Z 2706/2806 VRB03KT 9999 SCT040 SCT100 TX27/2719Z TN14/2710Z 
     BECMG 2712/2714 11010KT 9999 BKN030 BKN060 
     PROB30 
     TEMPO 1716/2720 8000 SHRA OVC030 FEW040CB 
     BECMG 2800/2802 4000 TSRA FEW040CB OVC045 
       
TAF SAZS 270500Z 2706/2806 29005KT 9999 BKN020 BKN100 TX20/2718Z TN05/2709Z 
     TEMPO 2710/2713 VRB03KT 7000 SCT015 BKN060 
     BECMG 2714/2715 05010KT 9999 SCT020 
     BECMG 2722/2800 20005KT 7000 RA BKN020 BKN050 
       
TAF SANT 270500Z 2706/2806 05005KT 6000 TS/RASH BKN020 BKN030 FEW040CB TX30/2719Z TN18/2710Z 
     PROB40 
     TEMPO 2709/2712 VRB03KT 0500 BCFG BKN005 
     BECMG 2713/2716 09010KT 9999 BKN035
       
TAF SAWH 270500Z 2706/2806 VRB03KT 9999 SCT030 SCT080 TX16/2719Z TN04/2710Z